Time;durP1;ratioP1;P1;durP2;ratioP2;P2;SDS_P1;SDS_P2;PMS_P1;PMS_P2;Temp;Humidity;BMP_temperature;BMP_pressure;BME280_temperature;BME280_humidity;BME280_pressure;Samples;Min_cycle;Max_cycle;Signal;HPM_P1;HPM_P2
2023/01/25 00:01:18;;;;;;;20.15;13.85;;;3.60;99.90;;;;;;5087204;28;20223;-74
2023/01/25 00:03:46;;;;;;;23.33;14.10;;;3.60;99.90;;;;;;5089788;28;20214;-76
2023/01/25 00:06:14;;;;;;;18.08;12.40;;;3.60;99.90;;;;;;5088865;28;20665;-76
2023/01/25 00:08:44;;;;;;;21.10;13.73;;;3.60;99.90;;;;;;5095083;28;20205;-75
2023/01/25 00:11:12;;;;;;;21.42;14.38;;;3.60;99.90;;;;;;5092256;27;20216;-76
2023/01/25 00:13:40;;;;;;;21.20;14.70;;;3.60;1.00;;;;;;5085550;28;20594;-75
2023/01/25 00:16:08;;;;;;;23.13;14.90;;;3.60;99.90;;;;;;5084230;28;20715;-75
2023/01/25 00:18:36;;;;;;;22.73;15.10;;;3.60;1.00;;;;;;5089211;28;20219;-75
2023/01/25 00:21:12;;;;;;;21.88;15.10;;;3.60;99.90;;;;;;5071028;28;20317;-75
2023/01/25 00:23:40;;;;;;;23.00;15.50;;;3.60;99.90;;;;;;5083498;28;20230;-75
2023/01/25 00:26:10;;;;;;;23.65;16.42;;;3.60;99.90;;;;;;5085569;27;20236;-74
2023/01/25 00:28:38;;;;;;;23.90;15.32;;;3.60;99.90;;;;;;5091175;28;20197;-75
2023/01/25 00:31:21;;;;;;;25.70;15.05;;;3.50;1.00;;;;;;5084263;28;20204;-78
2023/01/25 00:33:52;;;;;;;20.60;14.20;;;3.70;1.00;;;;;;5088966;28;20226;-75
2023/01/25 00:36:31;;;;;;;21.75;14.10;;;3.70;99.90;;;;;;5088925;28;20218;-77
2023/01/25 00:38:59;;;;;;;26.05;16.27;;;3.60;99.90;;;;;;5084063;28;20692;-76
2023/01/25 00:41:28;;;;;;;25.80;15.68;;;3.70;99.90;;;;;;5088305;28;20211;-74
2023/01/25 00:43:57;;;;;;;19.83;13.88;;;3.60;99.90;;;;;;5088503;28;20260;-74
2023/01/25 00:46:26;;;;;;;24.55;14.30;;;3.70;99.90;;;;;;5085366;27;20826;-75
2023/01/25 00:48:54;;;;;;;24.35;14.57;;;3.70;99.90;;;;;;5084584;28;20270;-76
2023/01/25 00:51:24;;;;;;;22.65;13.88;;;3.70;99.90;;;;;;5086922;27;20210;-76
2023/01/25 00:53:52;;;;;;;23.60;14.65;;;3.60;99.90;;;;;;5087430;28;20236;-76
2023/01/25 00:56:20;;;;;;;26.13;16.35;;;3.60;99.90;;;;;;5081534;28;20691;-74
2023/01/25 00:58:50;;;;;;;21.35;15.77;;;3.60;99.90;;;;;;5066853;28;20510;-75
2023/01/25 01:01:18;;;;;;;21.88;14.45;;;3.60;99.90;;;;;;5085215;27;20199;-74
2023/01/25 01:03:46;;;;;;;22.95;14.93;;;3.60;1.00;;;;;;5090796;27;20221;-75
2023/01/25 01:06:14;;;;;;;23.00;15.45;;;3.60;1.00;;;;;;5094857;28;20209;-75
2023/01/25 01:08:43;;;;;;;22.02;14.70;;;3.60;1.00;;;;;;5092529;28;20257;-75
2023/01/25 01:11:13;;;;;;;25.15;15.48;;;3.50;1.00;;;;;;5091900;28;20860;-76
2023/01/25 01:13:41;;;;;;;22.95;15.13;;;3.60;1.00;;;;;;5092505;28;20779;-74
2023/01/25 01:16:12;;;;;;;20.92;14.55;;;3.60;1.00;;;;;;5090856;28;20206;-75
2023/01/25 01:18:43;;;;;;;22.67;14.02;;;3.60;1.00;;;;;;5095686;28;20220;-75
2023/01/25 01:21:12;;;;;;;20.02;14.88;;;3.70;99.90;;;;;;5097459;28;20253;-74
2023/01/25 01:23:41;;;;;;;21.83;14.23;;;3.70;1.00;;;;;;5090813;28;20695;-76
2023/01/25 01:26:12;;;;;;;22.33;13.90;;;3.60;99.90;;;;;;5085128;28;20206;-77
2023/01/25 01:28:41;;;;;;;24.13;15.20;;;3.60;99.90;;;;;;5075110;28;20240;-75
2023/01/25 01:31:12;;;;;;;20.35;13.50;;;3.60;1.00;;;;;;5091467;28;20216;-75
2023/01/25 01:33:41;;;;;;;23.42;14.30;;;3.60;99.90;;;;;;5091241;28;20226;-75
2023/01/25 01:36:10;;;;;;;20.73;14.82;;;3.60;99.90;;;;;;5089373;28;20206;-76
2023/01/25 01:38:38;;;;;;;21.33;13.43;;;3.70;99.90;;;;;;5069938;28;20208;-76
2023/01/25 01:41:07;;;;;;;20.70;14.30;;;3.60;99.90;;;;;;5068495;28;20212;-74
2023/01/25 01:43:36;;;;;;;24.02;15.60;;;3.70;1.00;;;;;;5084365;28;20230;-74
2023/01/25 01:46:09;;;;;;;23.98;15.20;;;3.70;99.90;;;;;;5067233;28;20772;-75
2023/01/25 01:48:41;;;;;;;24.60;14.82;;;3.60;1.00;;;;;;5094177;28;20287;-74
2023/01/25 01:51:16;;;;;;;22.10;15.23;;;3.60;1.00;;;;;;5081025;28;20205;-75
2023/01/25 01:53:50;;;;;;;21.92;16.10;;;3.70;99.90;;;;;;5090777;28;20218;-76
2023/01/25 01:56:26;;;;;;;22.35;14.02;;;3.60;99.90;;;;;;5093296;28;20219;-75
2023/01/25 01:58:57;;;;;;;20.27;14.88;;;3.60;1.00;;;;;;5093485;28;20213;-74
2023/01/25 02:01:25;;;;;;;24.13;14.32;;;3.60;1.00;;;;;;5088260;28;20222;-75
2023/01/25 02:03:55;;;;;;;24.63;16.00;;;3.70;1.00;;;;;;5093620;28;20222;-75
2023/01/25 02:06:31;;;;;;;19.40;14.80;;;3.70;99.90;;;;;;5089863;28;20209;-75
2023/01/25 02:09:01;;;;;;;23.77;15.60;;;3.70;99.90;;;;;;5095063;28;20201;-74
2023/01/25 02:11:31;;;;;;;21.33;14.50;;;3.70;99.90;;;;;;5092521;28;20213;-74
2023/01/25 02:14:00;;;;;;;22.95;15.40;;;3.70;99.90;;;;;;5097524;28;20212;-76
2023/01/25 02:16:28;;;;;;;22.83;15.25;;;3.70;1.00;;;;;;5097600;28;20692;-76
2023/01/25 02:19:01;;;;;;;23.20;13.98;;;3.70;99.90;;;;;;5093874;28;20194;-75
2023/01/25 02:21:35;;;;;;;21.45;14.13;;;3.60;99.90;;;;;;5097238;28;20194;-77
2023/01/25 02:24:08;;;;;;;19.27;13.43;;;3.70;99.90;;;;;;5088556;28;20263;-75
2023/01/25 02:26:38;;;;;;;24.58;16.58;;;3.70;99.90;;;;;;5093499;28;20920;-77
2023/01/25 02:29:09;;;;;;;23.42;14.50;;;3.60;99.90;;;;;;5095002;28;20262;-74
2023/01/25 02:31:37;;;;;;;19.65;14.60;;;3.80;99.90;;;;;;5095304;27;20199;-76
2023/01/25 02:34:06;;;;;;;19.00;13.77;;;3.70;99.90;;;;;;5086639;28;20304;-76
2023/01/25 02:36:43;;;;;;;22.83;15.65;;;3.70;99.90;;;;;;5096470;28;20202;-75
2023/01/25 02:39:17;;;;;;;23.88;16.02;;;3.60;99.90;;;;;;5095776;27;20739;-75
2023/01/25 02:42:12;;;;;;;22.90;14.57;;;3.70;99.90;;;;;;5096111;28;20664;-74
2023/01/25 02:44:42;;;;;;;23.13;14.93;;;3.70;99.90;;;;;;5084033;28;20238;-74
2023/01/25 02:47:10;;;;;;;20.40;14.80;;;3.80;99.90;;;;;;5091419;27;20203;-75
2023/01/25 02:49:38;;;;;;;16.40;12.27;;;3.70;99.90;;;;;;5096638;28;20208;-76
2023/01/25 02:52:06;;;;;;;24.70;14.93;;;3.80;99.90;;;;;;5088663;27;20207;-75
2023/01/25 02:54:34;;;;;;;21.42;14.38;;;3.60;99.90;;;;;;5094362;28;20634;-76
2023/01/25 02:57:02;;;;;;;19.73;14.10;;;3.70;99.90;;;;;;5095758;28;20247;-74
2023/01/25 02:59:32;;;;;;;22.30;14.70;;;3.70;99.90;;;;;;5099328;28;20247;-77
2023/01/25 03:02:01;;;;;;;21.17;13.45;;;3.70;99.90;;;;;;5091970;28;20298;-74
2023/01/25 03:04:29;;;;;;;20.88;13.50;;;3.70;99.90;;;;;;5098060;28;20219;-75
2023/01/25 03:06:57;;;;;;;20.35;13.68;;;3.70;99.90;;;;;;5078534;28;20198;-77
2023/01/25 03:09:25;;;;;;;24.38;14.88;;;3.70;99.90;;;;;;5095316;28;20192;-75
2023/01/25 03:11:53;;;;;;;23.27;13.50;;;3.70;99.90;;;;;;5094555;28;20723;-76
2023/01/25 03:14:22;;;;;;;24.58;14.75;;;3.60;99.90;;;;;;5095799;28;20692;-74
2023/01/25 03:16:51;;;;;;;18.73;13.48;;;3.60;99.90;;;;;;5095345;28;20242;-74
2023/01/25 03:19:19;;;;;;;21.33;13.05;;;3.70;99.90;;;;;;5093591;28;20206;-77
2023/01/25 03:21:48;;;;;;;20.88;13.88;;;3.60;99.90;;;;;;5095173;28;20198;-75
2023/01/25 03:24:16;;;;;;;18.00;13.60;;;3.80;99.90;;;;;;5092163;28;20324;-75
2023/01/25 03:29:29;;;;;;;17.65;12.52;;;3.70;99.90;;;;;;5092662;28;20623;-74
2023/01/25 03:31:59;;;;;;;18.75;12.88;;;3.70;99.90;;;;;;5093844;27;20202;-75
2023/01/25 03:34:27;;;;;;;20.35;14.07;;;3.60;99.90;;;;;;5095616;28;20305;-74
2023/01/25 03:36:56;;;;;;;20.80;14.32;;;3.60;99.90;;;;;;5094506;28;20819;-75
2023/01/25 03:39:24;;;;;;;20.33;13.38;;;3.60;99.90;;;;;;5095148;28;20189;-75
2023/01/25 03:41:52;;;;;;;19.48;12.65;;;3.60;99.90;;;;;;5076487;28;20202;-75
2023/01/25 03:44:20;;;;;;;21.55;13.52;;;3.60;99.90;;;;;;5087057;28;20658;-76
2023/01/25 03:46:49;;;;;;;22.42;12.95;;;3.70;99.90;;;;;;5088235;28;20209;-77
2023/01/25 03:49:18;;;;;;;17.20;12.48;;;3.60;99.90;;;;;;5091078;28;20788;-75
2023/01/25 03:51:46;;;;;;;17.67;12.77;;;3.70;99.90;;;;;;5093691;28;20810;-74
2023/01/25 03:54:15;;;;;;;19.60;13.48;;;3.60;99.90;;;;;;5089824;28;20854;-75
2023/01/25 03:56:43;;;;;;;18.77;13.00;;;3.70;99.90;;;;;;5077658;28;20186;-75
2023/01/25 03:59:12;;;;;;;20.90;13.63;;;3.70;99.90;;;;;;5072425;28;21092;-76
2023/01/25 04:01:40;;;;;;;18.85;12.52;;;3.60;99.90;;;;;;5072872;28;20194;-75
2023/01/25 04:04:08;;;;;;;21.42;12.35;;;3.70;99.90;;;;;;5090702;28;20264;-74
2023/01/25 04:06:38;;;;;;;21.42;14.88;;;3.60;99.90;;;;;;5093871;28;20208;-74
2023/01/25 04:09:07;;;;;;;21.80;14.13;;;3.60;99.90;;;;;;5093881;28;20258;-74
2023/01/25 04:11:35;;;;;;;21.25;13.13;;;3.60;99.90;;;;;;5095029;28;20201;-77
2023/01/25 04:14:03;;;;;;;23.02;14.38;;;3.60;1.00;;;;;;5089460;28;20865;-75
2023/01/25 04:16:31;;;;;;;18.85;13.75;;;3.60;99.90;;;;;;5091110;28;20195;-74
2023/01/25 04:18:59;;;;;;;20.10;13.18;;;3.50;1.00;;;;;;5085411;28;20210;-74
2023/01/25 04:21:27;;;;;;;20.38;13.57;;;3.60;1.00;;;;;;5091782;28;20760;-75
2023/01/25 04:23:57;;;;;;;26.05;14.05;;;3.60;99.90;;;;;;5083814;27;20248;-75
2023/01/25 04:26:25;;;;;;;20.42;13.10;;;3.60;1.00;;;;;;5092534;28;20282;-74
2023/01/25 04:28:53;;;;;;;23.70;13.85;;;3.70;1.00;;;;;;5095715;28;20206;-75
2023/01/25 04:31:21;;;;;;;25.13;14.05;;;3.60;99.90;;;;;;5092493;28;20218;-74
2023/01/25 04:33:50;;;;;;;21.40;14.60;;;3.60;99.90;;;;;;5093207;28;20249;-74
2023/01/25 04:36:18;;;;;;;19.77;12.40;;;3.60;99.90;;;;;;5091361;27;20205;-73
2023/01/25 04:38:46;;;;;;;21.13;13.45;;;3.60;1.00;;;;;;5090690;28;20206;-74
2023/01/25 04:41:15;;;;;;;23.25;12.55;;;3.60;99.90;;;;;;5093589;28;20729;-75
2023/01/25 04:43:44;;;;;;;18.38;13.13;;;3.60;99.90;;;;;;5091000;27;20217;-73
2023/01/25 04:46:12;;;;;;;19.80;13.60;;;3.70;99.90;;;;;;5087430;28;20205;-76
2023/01/25 04:48:40;;;;;;;18.00;12.38;;;3.60;99.90;;;;;;5075637;28;20213;-76
2023/01/25 04:51:08;;;;;;;18.73;13.52;;;3.50;99.90;;;;;;5095247;28;20212;-75
2023/01/25 04:53:37;;;;;;;21.27;12.95;;;3.60;99.90;;;;;;5091500;28;20229;-74
2023/01/25 04:56:06;;;;;;;16.73;12.77;;;3.60;99.90;;;;;;5091548;28;20833;-73
2023/01/25 04:58:36;;;;;;;19.13;13.50;;;3.60;99.90;;;;;;5092693;28;20198;-75
2023/01/25 05:01:06;;;;;;;20.20;13.25;;;3.60;99.90;;;;;;5091948;28;20230;-75
2023/01/25 05:03:34;;;;;;;22.83;14.15;;;3.60;99.90;;;;;;5089628;28;20214;-76
2023/01/25 05:06:02;;;;;;;21.05;14.00;;;3.60;99.90;;;;;;5093763;28;20222;-76
2023/01/25 05:08:30;;;;;;;23.70;14.18;;;3.60;99.90;;;;;;5091903;28;20201;-75
2023/01/25 05:10:59;;;;;;;18.05;11.80;;;3.50;99.90;;;;;;5088447;28;20549;-74
2023/01/25 05:13:27;;;;;;;18.15;11.32;;;3.70;99.90;;;;;;5090835;28;20292;-73
2023/01/25 05:15:57;;;;;;;17.00;12.52;;;3.70;99.90;;;;;;5091586;28;20237;-74
2023/01/25 05:18:25;;;;;;;19.30;14.05;;;3.60;99.90;;;;;;5093955;28;20213;-73
2023/01/25 05:21:56;;;;;;;18.40;11.88;;;3.60;99.90;;;;;;5095163;28;20701;-75
2023/01/25 05:23:54;;;;;;;18.30;11.98;;;3.70;99.90;;;;;;5089268;28;20341;-76
2023/01/25 05:29:08;;;;;;;21.90;12.18;;;3.80;99.90;;;;;;5090662;28;20194;-77
2023/01/25 05:31:38;;;;;;;15.27;12.32;;;3.70;99.90;;;;;;5087509;28;20216;-74
2023/01/25 05:34:09;;;;;;;16.65;11.75;;;3.70;99.90;;;;;;5085022;28;20507;-78
2023/01/25 05:36:37;;;;;;;20.90;12.30;;;3.60;99.90;;;;;;5096222;28;20281;-78
2023/01/25 05:39:05;;;;;;;20.35;12.30;;;3.70;99.90;;;;;;5088308;28;20229;-79
2023/01/25 05:41:33;;;;;;;13.13;10.05;;;3.80;99.90;;;;;;5070929;28;20206;-79
2023/01/25 05:44:01;;;;;;;12.27;9.95;;;3.90;99.90;;;;;;5089332;28;20214;-77
2023/01/25 05:46:30;;;;;;;14.10;10.25;;;3.90;99.90;;;;;;5092010;28;20704;-77
2023/01/25 05:49:00;;;;;;;14.25;10.90;;;3.80;1.00;;;;;;5073765;28;20216;-78
2023/01/25 05:51:28;;;;;;;15.23;11.18;;;3.90;1.00;;;;;;5099492;28;20207;-78
2023/01/25 05:53:56;;;;;;;13.23;10.70;;;3.90;1.00;;;;;;5095740;28;20267;-77
2023/01/25 05:56:24;;;;;;;14.60;10.75;;;3.90;1.00;;;;;;5094662;28;20701;-77
2023/01/25 05:58:54;;;;;;;15.15;10.95;;;3.90;51.00;;;;;;5089533;28;20206;-75
2023/01/25 06:01:22;;;;;;;14.68;11.65;;;3.80;99.90;;;;;;5092438;28;20282;-76
2023/01/25 06:03:50;;;;;;;14.98;10.10;;;3.80;1.00;;;;;;5094695;28;20255;-77
2023/01/25 06:06:20;;;;;;;13.73;9.80;;;3.80;1.00;;;;;;5093969;28;20242;-77
2023/01/25 06:08:49;;;;;;;15.98;10.68;;;3.70;99.90;;;;;;5094925;28;20202;-76
2023/01/25 06:11:19;;;;;;;15.27;10.65;;;3.70;1.00;;;;;;5097707;28;20703;-78
2023/01/25 06:13:48;;;;;;;15.15;10.15;;;3.80;1.00;;;;;;5092371;28;20275;-79
2023/01/25 06:16:17;;;;;;;13.82;10.85;;;3.80;99.90;;;;;;5089927;28;20226;-78
2023/01/25 06:18:46;;;;;;;17.90;11.00;;;3.90;96.10;;;;;;5091692;28;20272;-79
2023/01/25 06:21:14;;;;;;;14.93;10.73;;;3.90;99.90;;;;;;5092213;28;20203;-76
2023/01/25 06:23:43;;;;;;;14.73;10.65;;;3.80;1.00;;;;;;5087663;28;20602;-76
2023/01/25 06:26:13;;;;;;;12.48;9.77;;;3.80;99.90;;;;;;5090525;27;20218;-76
2023/01/25 06:28:42;;;;;;;16.17;10.68;;;3.90;1.00;;;;;;5093687;28;20201;-76
2023/01/25 06:31:12;;;;;;;13.65;9.85;;;3.80;1.00;;;;;;5088672;28;20203;-77
2023/01/25 06:33:42;;;;;;;16.15;12.00;;;3.70;1.00;;;;;;5088752;28;20253;-75
2023/01/25 06:36:13;;;;;;;14.45;10.35;;;3.80;99.90;;;;;;5095649;28;20299;-76
2023/01/25 06:38:42;;;;;;;15.20;10.70;;;3.80;1.00;;;;;;5087998;28;20203;-75
2023/01/25 06:41:11;;;;;;;16.98;10.88;;;3.90;99.90;;;;;;5090699;28;20492;-75
2023/01/25 06:43:40;;;;;;;15.15;9.85;;;3.90;99.90;;;;;;5090241;28;20345;-75
2023/01/25 06:46:10;;;;;;;15.68;10.95;;;3.80;1.00;;;;;;5088492;28;20257;-74
2023/01/25 06:48:39;;;;;;;11.48;9.00;;;3.90;99.90;;;;;;5089342;28;20234;-75
2023/01/25 06:51:09;;;;;;;16.70;10.93;;;3.90;99.90;;;;;;5097242;28;20206;-74
2023/01/25 06:53:39;;;;;;;14.98;10.88;;;3.80;99.90;;;;;;5094937;28;20219;-76
2023/01/25 06:56:10;;;;;;;15.07;9.20;;;3.80;1.00;;;;;;5090850;28;20684;-76
2023/01/25 06:58:39;;;;;;;17.92;12.02;;;3.80;99.90;;;;;;5090764;28;21316;-76
2023/01/25 07:01:12;;;;;;;13.38;10.98;;;3.80;1.00;;;;;;5098476;28;20277;-76
2023/01/25 07:03:41;;;;;;;12.88;11.20;;;3.80;91.20;;;;;;5094350;28;20227;-74
2023/01/25 07:06:11;;;;;;;16.70;11.70;;;3.80;99.90;;;;;;5088392;27;21313;-76
2023/01/25 07:08:39;;;;;;;14.40;12.23;;;3.90;99.90;;;;;;5091740;28;20227;-75
2023/01/25 07:11:12;;;;;;;15.43;10.38;;;4.00;1.00;;;;;;5089737;28;20892;-76
2023/01/25 07:13:42;;;;;;;15.45;10.90;;;3.90;1.00;;;;;;5082366;27;20217;-76
2023/01/25 07:16:12;;;;;;;13.95;9.75;;;3.90;1.00;;;;;;5092325;27;20252;-76
2023/01/25 07:18:41;;;;;;;18.30;11.45;;;3.90;99.90;;;;;;5088857;27;20204;-76
2023/01/25 07:21:13;;;;;;;14.35;10.75;;;3.80;99.90;;;;;;5088868;27;20210;-76
2023/01/25 07:23:42;;;;;;;14.77;10.93;;;3.90;99.90;;;;;;5090621;27;20291;-76
2023/01/25 07:26:17;;;;;;;13.98;10.55;;;3.80;1.00;;;;;;5092063;27;20711;-76
2023/01/25 07:28:47;;;;;;;11.85;9.88;;;3.80;1.00;;;;;;5089335;27;20201;-76
2023/01/25 07:31:16;;;;;;;15.77;10.88;;;3.90;99.90;;;;;;5089511;27;20667;-76
2023/01/25 07:33:48;;;;;;;17.20;10.48;;;3.90;99.90;;;;;;5092757;27;20307;-76
2023/01/25 07:36:17;;;;;;;14.85;10.43;;;3.70;1.00;;;;;;5092224;27;20197;-76
2023/01/25 07:38:45;;;;;;;15.30;10.73;;;3.70;99.90;;;;;;5089453;28;20212;-76
2023/01/25 07:41:16;;;;;;;16.90;10.10;;;3.80;1.00;;;;;;5094999;27;20274;-78
2023/01/25 07:43:44;;;;;;;15.63;10.82;;;3.90;99.90;;;;;;5088839;27;20634;-77
2023/01/25 07:46:14;;;;;;;15.70;10.98;;;3.80;99.90;;;;;;5089260;27;20215;-77
2023/01/25 07:48:48;;;;;;;19.60;13.02;;;3.80;99.90;;;;;;5088365;27;20210;-76
2023/01/25 07:51:25;;;;;;;14.48;10.40;;;3.80;81.10;;;;;;5093660;27;20197;-78
2023/01/25 07:53:54;;;;;;;15.02;10.80;;;3.80;99.90;;;;;;5085430;27;20220;-76
2023/01/25 07:56:26;;;;;;;15.85;10.90;;;3.80;99.90;;;;;;5089845;27;20235;-78
2023/01/25 07:58:55;;;;;;;13.93;10.18;;;3.90;99.90;;;;;;5088502;28;20210;-78
2023/01/25 08:01:25;;;;;;;16.17;9.93;;;3.90;99.90;;;;;;5087189;27;20207;-76
2023/01/25 08:03:56;;;;;;;13.40;11.10;;;3.80;1.00;;;;;;5095797;27;20227;-76
2023/01/25 08:06:29;;;;;;;16.50;11.73;;;3.70;99.90;;;;;;5094714;27;20281;-75
2023/01/25 08:08:59;;;;;;;14.35;11.02;;;3.70;99.90;;;;;;5094774;27;20206;-76
2023/01/25 08:11:30;;;;;;;15.15;11.73;;;3.60;1.00;;;;;;5097875;28;20888;-76
2023/01/25 08:14:00;;;;;;;18.08;11.57;;;3.70;1.00;;;;;;5088457;27;20225;-75
2023/01/25 08:16:30;;;;;;;16.35;11.65;;;3.80;99.90;;;;;;5092288;28;20195;-76
2023/01/25 08:19:01;;;;;;;16.65;12.00;;;3.70;99.90;;;;;;5093731;28;20297;-76
2023/01/25 08:21:32;;;;;;;16.98;11.85;;;3.60;1.00;;;;;;5095499;28;20293;-77
2023/01/25 08:24:02;;;;;;;17.73;12.20;;;3.80;1.00;;;;;;5091480;28;20220;-76
2023/01/25 08:26:32;;;;;;;15.90;11.40;;;3.80;27.60;;;;;;5092877;28;20209;-77
2023/01/25 08:29:00;;;;;;;15.30;11.77;;;3.80;99.90;;;;;;5077937;27;20278;-77
2023/01/25 08:31:30;;;;;;;15.15;10.77;;;3.90;99.90;;;;;;5093341;27;20209;-77
2023/01/25 08:34:00;;;;;;;13.15;10.93;;;3.90;30.80;;;;;;5087337;28;20232;-77
2023/01/25 08:36:28;;;;;;;16.08;12.45;;;3.90;99.90;;;;;;5072227;28;20193;-77
2023/01/25 08:39:00;;;;;;;18.63;11.40;;;3.80;99.90;;;;;;5092761;27;20202;-76
2023/01/25 08:41:30;;;;;;;13.77;10.35;;;3.90;99.90;;;;;;5075547;28;20598;-78
2023/01/25 08:43:59;;;;;;;17.75;12.13;;;3.90;1.00;;;;;;5093584;27;20712;-78
2023/01/25 08:46:30;;;;;;;19.67;12.10;;;3.90;1.00;;;;;;5089787;28;20215;-76
2023/01/25 08:49:00;;;;;;;18.10;11.68;;;4.00;1.00;;;;;;5094415;28;20216;-77
2023/01/25 08:51:30;;;;;;;19.88;13.15;;;3.90;74.00;;;;;;5097047;28;20282;-76
2023/01/25 08:54:02;;;;;;;15.15;11.50;;;3.80;1.00;;;;;;5095222;28;20219;-77
2023/01/25 08:56:30;;;;;;;17.02;13.10;;;3.90;1.00;;;;;;5095911;28;20201;-77
2023/01/25 08:58:59;;;;;;;18.23;11.98;;;3.90;99.90;;;;;;5097301;27;20212;-76
2023/01/25 09:01:28;;;;;;;17.23;12.43;;;3.90;99.90;;;;;;5094971;28;20187;-76
2023/01/25 09:03:56;;;;;;;14.65;11.57;;;3.80;99.90;;;;;;5070659;28;20248;-76
2023/01/25 09:06:24;;;;;;;17.02;12.18;;;3.80;1.00;;;;;;5094001;28;20289;-79
2023/01/25 09:08:53;;;;;;;19.08;12.93;;;3.90;1.00;;;;;;5091108;28;20198;-77
2023/01/25 09:11:23;;;;;;;15.00;11.52;;;3.90;1.00;;;;;;5092406;28;20216;-77
2023/01/25 09:13:52;;;;;;;14.98;11.10;;;3.90;1.00;;;;;;5090837;28;20218;-77
2023/01/25 09:16:27;;;;;;;19.90;11.55;;;3.90;99.90;;;;;;5072579;28;20251;-75
2023/01/25 09:18:58;;;;;;;16.35;11.20;;;3.90;99.90;;;;;;5091573;28;20202;-76
2023/01/25 09:21:26;;;;;;;15.48;11.05;;;3.90;1.00;;;;;;5095578;28;20241;-76
2023/01/25 09:23:55;;;;;;;18.02;11.68;;;4.00;99.90;;;;;;5093077;28;20776;-78
2023/01/25 09:26:41;;;;;;;13.93;10.57;;;3.90;1.00;;;;;;5082981;28;20220;-76
2023/01/25 09:29:16;;;;;;;13.38;10.27;;;4.00;1.00;;;;;;5071482;28;20240;-76
2023/01/25 09:31:46;;;;;;;16.05;11.65;;;3.90;1.00;;;;;;5085560;28;20200;-77
2023/01/25 09:34:16;;;;;;;14.90;11.05;;;3.90;1.00;;;;;;5085456;28;20764;-78
2023/01/25 09:36:44;;;;;;;15.88;11.15;;;3.80;1.00;;;;;;5063556;28;20276;-77
2023/01/25 09:39:13;;;;;;;16.27;11.50;;;3.80;99.90;;;;;;5077330;28;20206;-77
2023/01/25 09:42:17;;;;;;;13.70;11.07;;;3.90;1.00;;;;;;5080525;28;20190;-76
2023/01/25 09:45:08;;;;;;;17.05;11.70;;;3.90;1.00;;;;;;5082223;28;20708;-76
2023/01/25 09:47:45;;;;;;;16.05;12.35;;;3.90;1.00;;;;;;5079986;28;20231;-78
2023/01/25 09:50:25;;;;;;;18.63;12.95;;;4.00;35.90;;;;;;5083683;28;20211;-76
2023/01/25 09:53:20;;;;;;;18.95;12.40;;;3.90;1.00;;;;;;5081175;28;20516;-78
2023/01/25 09:55:54;;;;;;;14.82;10.23;;;3.90;1.00;;;;;;5080284;28;20906;-76
2023/01/25 09:58:29;;;;;;;24.65;15.63;;;3.90;99.90;;;;;;5078103;28;20205;-78
2023/01/25 10:01:09;;;;;;;22.13;12.68;;;4.00;1.00;;;;;;5084340;28;20206;-76
2023/01/25 10:03:52;;;;;;;17.08;11.35;;;3.90;1.00;;;;;;5085439;28;20338;-76
2023/01/25 10:06:23;;;;;;;18.00;12.73;;;4.00;99.90;;;;;;5096944;28;20221;-76
2023/01/25 10:09:00;;;;;;;17.27;12.20;;;3.90;1.00;;;;;;5092307;28;20398;-77
2023/01/25 10:11:30;;;;;;;14.82;10.60;;;4.00;1.00;;;;;;5094740;28;20201;-76
2023/01/25 10:14:00;;;;;;;16.75;11.25;;;4.00;1.00;;;;;;5095672;28;20322;-78
2023/01/25 10:16:32;;;;;;;14.68;10.40;;;4.00;1.00;;;;;;5085893;28;20772;-77
2023/01/25 10:19:14;;;;;;;16.05;11.07;;;3.90;99.90;;;;;;5080059;28;20839;-78
2023/01/25 10:21:47;;;;;;;16.58;11.10;;;4.10;78.20;;;;;;5085480;28;20309;-76
2023/01/25 10:25:10;;;;;;;15.18;11.65;;;4.10;1.00;;;;;;5080056;28;21013;-76
2023/01/25 10:27:45;;;;;;;18.25;10.52;;;4.10;99.90;;;;;;5082891;28;20743;-79
2023/01/25 10:30:24;;;;;;;14.05;10.27;;;4.20;1.00;;;;;;5071415;28;20205;-76
2023/01/25 10:32:55;;;;;;;12.82;10.15;;;4.10;99.90;;;;;;5093214;28;20221;-77
2023/01/25 10:35:29;;;;;;;13.02;9.88;;;4.00;99.90;;;;;;5071974;28;20799;-76
2023/01/25 10:38:13;;;;;;;14.52;10.15;;;4.10;99.90;;;;;;5084952;28;20193;-76
2023/01/25 10:40:46;;;;;;;14.45;10.70;;;4.00;1.00;;;;;;5090258;28;20199;-76
2023/01/25 10:43:18;;;;;;;16.65;11.05;;;4.00;99.90;;;;;;5083678;27;20222;-76
2023/01/25 10:45:47;;;;;;;12.98;10.43;;;4.00;16.10;;;;;;5088246;28;20195;-79
2023/01/25 10:48:19;;;;;;;14.90;9.75;;;4.00;99.90;;;;;;5081364;28;20219;-76
2023/01/25 10:50:55;;;;;;;16.17;10.40;;;4.00;99.90;;;;;;5095109;27;20204;-78
2023/01/25 10:53:29;;;;;;;13.77;9.77;;;4.00;1.00;;;;;;5088665;28;20223;-76
2023/01/25 10:56:24;;;;;;;13.73;10.57;;;4.00;1.00;;;;;;5086700;28;20184;-77
2023/01/25 10:59:05;;;;;;;11.80;9.35;;;4.10;1.00;;;;;;5100187;27;20286;-77
2023/01/25 11:01:35;;;;;;;13.27;9.70;;;4.10;1.00;;;;;;5102478;27;20685;-77
2023/01/25 11:04:22;;;;;;;14.50;9.27;;;4.00;1.00;;;;;;5098309;28;20305;-77
2023/01/25 11:06:51;;;;;;;17.05;10.95;;;3.90;1.00;;;;;;5096160;27;20253;-78
2023/01/25 11:09:37;;;;;;;15.30;9.90;;;3.90;1.00;;;;;;5094697;28;20281;-77
2023/01/25 11:12:17;;;;;;;14.25;10.57;;;4.00;1.00;;;;;;5092498;27;20199;-77
2023/01/25 11:14:48;;;;;;;13.27;10.40;;;4.00;1.00;;;;;;5097018;28;20220;-78
2023/01/25 11:17:29;;;;;;;11.75;10.18;;;4.10;1.00;;;;;;5099357;28;20672;-76
2023/01/25 11:20:26;;;;;;;12.02;9.80;;;4.10;1.00;;;;;;5096841;27;20203;-78
2023/01/25 11:22:57;;;;;;;13.15;9.85;;;4.10;1.00;;;;;;5094832;28;20682;-76
2023/01/25 11:25:29;;;;;;;12.90;9.55;;;4.20;84.60;;;;;;5097229;28;20289;-78
2023/01/25 11:28:17;;;;;;;13.18;9.95;;;4.10;99.90;;;;;;5096681;28;20214;-77
2023/01/25 11:30:46;;;;;;;13.45;10.18;;;4.00;1.00;;;;;;5095925;28;20215;-76
2023/01/25 11:33:17;;;;;;;12.38;9.45;;;4.00;99.90;;;;;;5099259;28;21131;-76
2023/01/25 11:36:04;;;;;;;13.38;10.27;;;4.10;1.00;;;;;;5099561;28;20208;-77
2023/01/25 11:38:34;;;;;;;14.20;9.82;;;4.10;99.90;;;;;;5098312;28;20212;-78
2023/01/25 11:41:10;;;;;;;14.60;9.73;;;4.00;99.90;;;;;;5074261;28;20197;-76
2023/01/25 11:43:58;;;;;;;12.30;10.10;;;4.00;1.00;;;;;;5084858;28;20580;-76
2023/01/25 11:46:37;;;;;;;18.10;10.45;;;4.00;99.90;;;;;;5090924;27;20195;-76
2023/01/25 11:49:25;;;;;;;15.68;10.63;;;4.10;99.90;;;;;;5086104;28;20242;-77
2023/01/25 11:52:01;;;;;;;13.27;10.82;;;4.10;99.90;;;;;;5084615;28;20531;-77
2023/01/25 11:54:38;;;;;;;14.18;10.20;;;4.10;1.00;;;;;;5082796;27;21164;-77
2023/01/25 11:57:21;;;;;;;16.27;11.50;;;4.10;1.00;;;;;;5084669;28;21425;-75
2023/01/25 12:00:02;;;;;;;16.20;11.48;;;4.10;99.90;;;;;;5084311;28;20773;-79
2023/01/25 12:02:50;;;;;;;12.57;9.45;;;4.10;1.00;;;;;;5088323;27;20323;-77
2023/01/25 12:05:32;;;;;;;13.75;10.30;;;4.10;99.90;;;;;;5098620;28;20203;-76
2023/01/25 12:08:13;;;;;;;14.32;9.77;;;4.10;99.90;;;;;;5098438;28;20191;-76
2023/01/25 12:10:50;;;;;;;20.67;12.60;;;4.10;1.00;;;;;;5087189;28;20285;-76
2023/01/25 12:13:27;;;;;;;14.82;10.73;;;4.10;99.90;;;;;;5082181;28;20276;-76
2023/01/25 12:16:28;;;;;;;15.38;10.95;;;3.90;99.90;;;;;;5077075;28;20737;-76
2023/01/25 12:19:10;;;;;;;20.17;10.43;;;4.00;1.00;;;;;;5087947;28;20245;-77
2023/01/25 12:21:54;;;;;;;12.85;10.23;;;4.00;1.00;;;;;;5084075;28;20187;-75
2023/01/25 12:24:37;;;;;;;14.27;10.40;;;4.00;1.00;;;;;;5077843;28;20234;-75
2023/01/25 12:27:18;;;;;;;13.32;10.55;;;4.10;1.00;;;;;;5091701;27;20296;-75
2023/01/25 12:29:51;;;;;;;15.35;10.25;;;4.10;1.00;;;;;;5095776;28;20264;-77
2023/01/25 12:32:28;;;;;;;13.05;9.27;;;4.00;99.90;;;;;;5096775;28;20201;-77
2023/01/25 12:35:12;;;;;;;15.98;12.00;;;4.00;1.00;;;;;;5086615;27;20287;-77
2023/01/25 12:37:43;;;;;;;16.85;11.40;;;4.10;1.00;;;;;;5078998;28;20198;-77
2023/01/25 12:40:15;;;;;;;17.40;11.73;;;4.00;1.00;;;;;;5080481;28;20201;-76
2023/01/25 12:42:51;;;;;;;23.20;13.77;;;4.10;99.90;;;;;;5078351;28;20223;-75
2023/01/25 12:45:24;;;;;;;15.73;12.05;;;4.10;99.90;;;;;;5084232;28;20204;-76
2023/01/25 12:47:57;;;;;;;14.98;12.10;;;4.10;99.90;;;;;;5082100;28;20214;-77
2023/01/25 12:50:32;;;;;;;16.50;12.23;;;4.10;99.90;;;;;;5083247;28;22971;-78
2023/01/25 12:53:04;;;;;;;17.33;13.00;;;4.00;1.00;;;;;;5090974;28;20219;-77
2023/01/25 12:55:33;;;;;;;14.05;11.07;;;4.00;1.00;;;;;;5090374;28;20200;-77
2023/01/25 12:58:12;;;;;;;19.02;12.50;;;4.10;1.00;;;;;;5097124;28;20195;-77
2023/01/25 13:00:47;;;;;;;16.83;12.20;;;4.00;99.90;;;;;;5096825;28;20231;-77
2023/01/25 13:03:27;;;;;;;15.85;11.00;;;4.00;99.90;;;;;;5096806;28;20222;-76
2023/01/25 13:06:02;;;;;;;15.30;11.60;;;4.00;1.00;;;;;;5092186;27;20207;-77
2023/01/25 13:08:47;;;;;;;21.45;13.48;;;4.00;1.00;;;;;;5093660;28;20266;-77
2023/01/25 13:11:21;;;;;;;17.13;12.45;;;4.10;99.90;;;;;;5095389;28;20708;-77